Time;durP1;ratioP1;P1;durP2;ratioP2;P2;SDS_P1;SDS_P2;PMS_P1;PMS_P2;Temp;Humidity;BMP_temperature;BMP_pressure;BME280_temperature;BME280_humidity;BME280_pressure;Samples;Min_cycle;Max_cycle;Signal;HPM_P1;HPM_P2
2024/01/30 00:01:40;;;;;;;1999.90;999.90;;;-1.00;99.90;;;;;;4937450;28;20032;-83
2024/01/30 00:04:06;;;;;;;1999.90;999.90;;;-1.00;99.90;;;;;;4936029;29;20032;-84
2024/01/30 00:06:31;;;;;;;1999.90;999.90;;;-1.00;99.90;;;;;;4937443;28;20040;-84
2024/01/30 00:08:57;;;;;;;1999.90;999.90;;;-1.00;99.90;;;;;;4937214;28;20036;-83
2024/01/30 00:11:25;;;;;;;1999.90;999.90;;;-1.00;99.90;;;;;;4938356;28;20566;-83
2024/01/30 00:13:54;;;;;;;1999.90;999.90;;;-1.00;99.90;;;;;;4956924;28;20066;-83
2024/01/30 00:16:21;;;;;;;1999.90;999.90;;;-1.00;99.90;;;;;;4955492;28;20465;-84
2024/01/30 00:18:47;;;;;;;1999.90;999.90;;;-1.00;99.90;;;;;;4938799;28;20048;-83
2024/01/30 00:21:13;;;;;;;1999.90;999.90;;;-1.00;99.90;;;;;;4935951;29;20043;-84
2024/01/30 00:23:38;;;;;;;1999.90;999.90;;;-1.00;99.90;;;;;;4936015;29;20072;-83
2024/01/30 00:26:05;;;;;;;1999.90;999.90;;;-1.00;99.90;;;;;;4936066;28;20051;-84
2024/01/30 00:28:31;;;;;;;1999.90;999.90;;;-1.00;99.90;;;;;;4936026;28;20088;-83
2024/01/30 00:30:56;;;;;;;1999.90;999.90;;;-1.00;99.90;;;;;;4937484;28;20115;-84
2024/01/30 00:33:22;;;;;;;1999.90;999.90;;;-1.00;99.90;;;;;;4935894;29;20115;-84
2024/01/30 00:35:47;;;;;;;1999.90;999.90;;;-1.00;99.90;;;;;;4944649;28;20040;-84
2024/01/30 00:38:13;;;;;;;1999.90;999.90;;;-0.90;99.90;;;;;;4956636;28;20040;-84
2024/01/30 00:40:38;;;;;;;1999.90;999.90;;;-1.00;99.90;;;;;;4956383;28;20039;-84
2024/01/30 00:43:04;;;;;;;1999.90;999.90;;;-0.90;99.90;;;;;;4954934;28;20107;-84
2024/01/30 00:45:30;;;;;;;1999.90;999.90;;;-0.90;99.90;;;;;;4954923;28;20040;-84
2024/01/30 00:47:55;;;;;;;1999.90;999.90;;;-0.90;99.90;;;;;;4954691;28;20047;-83
2024/01/30 00:50:21;;;;;;;1999.90;999.90;;;-0.90;99.90;;;;;;4955345;28;20036;-84
2024/01/30 00:52:46;;;;;;;1999.90;999.90;;;-1.00;99.90;;;;;;4955199;28;20039;-83
2024/01/30 00:55:12;;;;;;;1999.90;999.90;;;-1.00;99.90;;;;;;4955490;28;20035;-83
2024/01/30 00:57:38;;;;;;;1999.90;999.90;;;-1.00;99.90;;;;;;4955568;28;20531;-83
2024/01/30 01:00:06;;;;;;;1999.90;999.90;;;-1.00;99.90;;;;;;4955553;28;20076;-84
2024/01/30 01:02:31;;;;;;;1999.90;999.90;;;-1.00;99.90;;;;;;4954764;28;20032;-84
2024/01/30 01:04:57;;;;;;;1999.90;999.90;;;-1.00;99.90;;;;;;4955279;28;20044;-83
2024/01/30 01:07:23;;;;;;;1999.90;999.90;;;-1.00;99.90;;;;;;4955625;28;20036;-84
2024/01/30 01:09:48;;;;;;;1999.90;999.90;;;-1.00;99.90;;;;;;4955467;28;20391;-84
2024/01/30 01:12:14;;;;;;;1999.90;999.90;;;-1.00;99.90;;;;;;4955170;28;20043;-84
2024/01/30 01:14:39;;;;;;;1999.90;999.90;;;-1.00;99.90;;;;;;4955392;28;20397;-84
2024/01/30 01:17:05;;;;;;;1999.90;999.90;;;-1.00;99.90;;;;;;4960886;28;20553;-84
2024/01/30 01:19:30;;;;;;;1999.90;999.90;;;-1.00;99.90;;;;;;4960962;28;20498;-83
2024/01/30 01:21:56;;;;;;;1999.90;999.90;;;-1.10;99.90;;;;;;4968168;28;20313;-83
2024/01/30 01:24:22;;;;;;;1999.90;999.90;;;-1.10;99.90;;;;;;4950968;28;20033;-84
2024/01/30 01:26:47;;;;;;;1999.90;999.90;;;-1.10;99.90;;;;;;4940227;28;20036;-84
2024/01/30 01:29:13;;;;;;;1999.90;999.90;;;-1.10;99.90;;;;;;4938563;28;20028;-84
2024/01/30 01:31:43;;;;;;;1999.90;999.90;;;-1.10;99.90;;;;;;4938926;28;20095;-83
2024/01/30 01:34:12;;;;;;;1999.90;999.90;;;-1.10;99.90;;;;;;4939286;28;20064;-84
2024/01/30 01:36:38;;;;;;;1999.90;999.90;;;-1.20;99.90;;;;;;4949876;28;20047;-84
2024/01/30 01:39:04;;;;;;;1999.90;999.90;;;-1.10;99.90;;;;;;4959654;28;20438;-84
2024/01/30 01:41:31;;;;;;;1999.90;999.90;;;-1.20;99.90;;;;;;4957998;28;20547;-83
2024/01/30 01:43:57;;;;;;;1999.90;999.90;;;-1.20;99.90;;;;;;4958268;28;20058;-84
2024/01/30 01:46:23;;;;;;;1999.90;999.90;;;-1.20;99.90;;;;;;4957808;28;20099;-84
2024/01/30 01:48:49;;;;;;;1999.90;999.90;;;-1.20;99.90;;;;;;4957893;28;20039;-84
2024/01/30 01:51:16;;;;;;;1999.90;999.90;;;-1.20;99.90;;;;;;4958955;28;20035;-84
2024/01/30 01:53:41;;;;;;;1999.90;999.90;;;-1.30;99.90;;;;;;4959111;28;20090;-84
2024/01/30 01:56:07;;;;;;;1999.90;999.90;;;-1.20;99.90;;;;;;4957751;28;20082;-85
2024/01/30 01:58:33;;;;;;;1999.90;999.90;;;-1.20;99.90;;;;;;4957703;28;20032;-83
2024/01/30 02:00:59;;;;;;;1999.90;999.90;;;-1.30;99.90;;;;;;4959054;28;20152;-84
2024/01/30 02:03:24;;;;;;;1999.90;999.90;;;-1.30;99.90;;;;;;4958836;28;20024;-83
2024/01/30 02:05:54;;;;;;;1999.90;999.90;;;-1.30;99.90;;;;;;4957822;28;20043;-84
2024/01/30 02:08:20;;;;;;;1999.90;999.90;;;-1.30;99.90;;;;;;4958860;28;20067;-84
2024/01/30 02:10:46;;;;;;;1999.90;999.90;;;-1.30;99.90;;;;;;4957525;28;20063;-85
2024/01/30 02:13:12;;;;;;;1999.90;999.90;;;-1.30;99.90;;;;;;4957378;28;20087;-84
2024/01/30 02:15:37;;;;;;;1999.90;999.90;;;-1.30;99.90;;;;;;4958990;28;20040;-84
2024/01/30 02:18:03;;;;;;;1999.90;999.90;;;-1.30;99.90;;;;;;4957441;28;20031;-84
2024/01/30 02:20:30;;;;;;;1999.90;999.90;;;-1.30;99.90;;;;;;4958780;28;20110;-82
2024/01/30 02:22:58;;;;;;;1999.90;999.90;;;-1.30;99.90;;;;;;4958325;28;20032;-82
2024/01/30 02:25:36;;;;;;;1999.90;999.90;;;-1.40;99.90;;;;;;4958702;28;20447;-82
2024/01/30 02:28:02;;;;;;;1999.90;999.90;;;-1.40;99.90;;;;;;4958403;28;20598;-82
2024/01/30 02:30:27;;;;;;;1999.90;999.90;;;-1.40;99.90;;;;;;4958595;28;20068;-83
2024/01/30 02:32:53;;;;;;;1999.90;999.90;;;-1.40;99.90;;;;;;4959876;28;20034;-82
2024/01/30 02:35:18;;;;;;;1999.90;999.90;;;-1.40;99.90;;;;;;4947201;28;20040;-82
2024/01/30 02:37:44;;;;;;;1999.90;999.90;;;-1.40;99.90;;;;;;4939555;28;20032;-82
2024/01/30 02:40:10;;;;;;;1999.90;999.90;;;-1.40;99.90;;;;;;4939245;29;20044;-83
2024/01/30 02:42:35;;;;;;;1999.90;999.90;;;-1.40;99.90;;;;;;4939279;28;20391;-83
2024/01/30 02:45:01;;;;;;;1999.90;999.90;;;-1.50;99.90;;;;;;4939459;28;20561;-83
2024/01/30 02:47:26;;;;;;;1999.90;999.90;;;-1.50;99.90;;;;;;4940816;28;20036;-82
2024/01/30 02:49:52;;;;;;;1999.90;999.90;;;-1.50;99.90;;;;;;4938691;29;20040;-83
2024/01/30 02:52:17;;;;;;;1999.90;999.90;;;-1.50;99.90;;;;;;4940518;28;20040;-83
2024/01/30 02:54:43;;;;;;;1999.90;999.90;;;-1.50;99.90;;;;;;4945345;28;20410;-82
2024/01/30 02:57:08;;;;;;;1999.90;999.90;;;-1.50;99.90;;;;;;4960232;28;20138;-82
2024/01/30 02:59:35;;;;;;;1999.90;999.90;;;-1.50;99.90;;;;;;4960269;28;20155;-82
2024/01/30 03:02:01;;;;;;;1999.90;999.90;;;-1.50;99.90;;;;;;4955835;28;20027;-83
2024/01/30 03:04:27;;;;;;;1999.90;999.90;;;-1.50;99.90;;;;;;4942898;28;20044;-82
2024/01/30 03:06:52;;;;;;;1999.90;999.90;;;-1.50;99.90;;;;;;4958457;28;20402;-83
2024/01/30 03:09:18;;;;;;;1999.90;999.90;;;-1.50;99.90;;;;;;4960117;28;20034;-85
2024/01/30 03:11:44;;;;;;;1999.90;999.90;;;-1.50;99.90;;;;;;4941078;28;20044;-83
2024/01/30 03:14:10;;;;;;;1999.90;999.90;;;-1.50;99.90;;;;;;4939456;29;20055;-83
2024/01/30 03:16:37;;;;;;;1999.90;999.90;;;-1.50;99.90;;;;;;4939243;28;20032;-83
2024/01/30 03:19:03;;;;;;;1999.90;999.90;;;-1.50;99.90;;;;;;4952962;28;20114;-83
2024/01/30 03:21:29;;;;;;;1999.90;999.90;;;-1.60;99.90;;;;;;4959194;28;20035;-83
2024/01/30 03:23:54;;;;;;;1999.90;999.90;;;-1.60;99.90;;;;;;4963340;28;20118;-83
2024/01/30 03:26:20;;;;;;;1999.90;999.90;;;-1.60;99.90;;;;;;4965792;28;20545;-83
2024/01/30 03:28:45;;;;;;;1999.90;999.90;;;-1.60;99.90;;;;;;4958664;28;20039;-83
2024/01/30 03:31:14;;;;;;;1999.90;999.90;;;-1.60;99.90;;;;;;4958123;28;20074;-83
2024/01/30 03:33:39;;;;;;;1999.90;999.90;;;-1.60;99.90;;;;;;4958641;28;20087;-83
2024/01/30 03:36:05;;;;;;;1999.90;999.90;;;-1.60;99.90;;;;;;4958869;28;20502;-82
2024/01/30 03:38:34;;;;;;;1999.90;999.90;;;-1.60;99.90;;;;;;4957328;28;20031;-84
2024/01/30 03:41:00;;;;;;;1999.90;999.90;;;-1.60;99.90;;;;;;4956826;28;20498;-85
2024/01/30 03:43:25;;;;;;;1999.90;999.90;;;-1.50;99.90;;;;;;4957139;28;20042;-84
2024/01/30 03:45:51;;;;;;;1999.90;999.90;;;-1.50;99.90;;;;;;4960624;28;20036;-84
2024/01/30 03:48:17;;;;;;;1999.90;999.90;;;-1.60;99.90;;;;;;4956310;28;20035;-85
2024/01/30 03:50:42;;;;;;;1999.90;999.90;;;-1.50;99.90;;;;;;4957768;28;20040;-83
2024/01/30 03:53:08;;;;;;;1999.90;999.90;;;-1.60;99.90;;;;;;4957262;28;20490;-84
2024/01/30 03:55:33;;;;;;;1999.90;999.90;;;-1.60;99.90;;;;;;4955687;28;20486;-85
2024/01/30 03:57:59;;;;;;;1999.90;999.90;;;-1.60;99.90;;;;;;4936861;28;20568;-84
2024/01/30 04:00:24;;;;;;;1999.90;999.90;;;-1.60;99.90;;;;;;4938438;28;20044;-84
2024/01/30 04:02:51;;;;;;;1999.90;999.90;;;-1.60;99.90;;;;;;4938256;28;20036;-83
2024/01/30 04:05:16;;;;;;;1999.90;999.90;;;-1.60;99.90;;;;;;4936734;28;20123;-84
2024/01/30 04:07:42;;;;;;;1999.90;999.90;;;-1.50;99.90;;;;;;4941778;28;20040;-84
2024/01/30 04:10:09;;;;;;;1999.90;999.90;;;-1.50;99.90;;;;;;4955873;28;20423;-84
2024/01/30 04:12:35;;;;;;;1999.90;999.90;;;-1.50;99.90;;;;;;4956951;28;20035;-84
2024/01/30 04:15:01;;;;;;;1999.90;999.90;;;-1.50;99.90;;;;;;4955890;28;20402;-84
2024/01/30 04:17:28;;;;;;;1999.90;999.90;;;-1.50;99.90;;;;;;4955859;28;20056;-84
2024/01/30 04:19:53;;;;;;;1999.90;999.90;;;-1.50;99.90;;;;;;4957110;28;20134;-83
2024/01/30 04:22:19;;;;;;;1999.90;999.90;;;-1.50;99.90;;;;;;4955292;28;20036;-84
2024/01/30 04:24:44;;;;;;;1999.90;999.90;;;-1.60;99.90;;;;;;4943566;28;20076;-84
2024/01/30 04:27:10;;;;;;;1999.90;999.90;;;-1.60;99.90;;;;;;4936409;29;20036;-84
2024/01/30 04:29:35;;;;;;;1999.90;999.90;;;-1.60;99.90;;;;;;4937960;28;20050;-84
2024/01/30 04:32:01;;;;;;;1999.90;999.90;;;-1.60;99.90;;;;;;4936033;29;20162;-84
2024/01/30 04:34:26;;;;;;;1999.90;999.90;;;-1.60;99.90;;;;;;4936416;29;20036;-83
2024/01/30 04:36:52;;;;;;;1999.90;999.90;;;-1.60;99.90;;;;;;4936309;29;20040;-84
2024/01/30 04:39:17;;;;;;;1999.90;999.90;;;-1.60;99.90;;;;;;4952279;28;20066;-84
2024/01/30 04:41:43;;;;;;;1999.90;999.90;;;-1.60;99.90;;;;;;4956945;28;20047;-84
2024/01/30 04:44:08;;;;;;;1999.90;999.90;;;-1.60;99.90;;;;;;4956743;28;20028;-83
2024/01/30 04:46:34;;;;;;;1999.90;999.90;;;-1.60;99.90;;;;;;4955418;28;20039;-84
2024/01/30 04:49:00;;;;;;;1999.90;999.90;;;-1.60;99.90;;;;;;4955076;28;20048;-84
2024/01/30 04:51:25;;;;;;;1999.90;999.90;;;-1.60;99.90;;;;;;4957565;28;20043;-83
2024/01/30 04:53:51;;;;;;;1999.90;999.90;;;-1.70;99.90;;;;;;4941841;28;20119;-84
2024/01/30 04:56:17;;;;;;;1999.90;999.90;;;-1.70;99.90;;;;;;4939751;28;20517;-85
2024/01/30 04:58:42;;;;;;;1999.90;999.90;;;-1.70;99.90;;;;;;4939244;29;20032;-84
2024/01/30 05:01:08;;;;;;;1999.90;999.90;;;-1.70;99.90;;;;;;4940672;28;20040;-85
2024/01/30 05:03:34;;;;;;;1999.90;999.90;;;-1.70;99.90;;;;;;4939366;28;20471;-84
2024/01/30 05:06:00;;;;;;;1999.90;999.90;;;-1.70;99.90;;;;;;4939424;28;20044;-84
2024/01/30 05:08:25;;;;;;;1999.90;999.90;;;-1.80;99.90;;;;;;4946837;28;20031;-84
2024/01/30 05:10:51;;;;;;;1999.90;999.90;;;-1.70;99.90;;;;;;4958373;28;20095;-84
2024/01/30 05:13:16;;;;;;;1999.90;999.90;;;-1.70;99.90;;;;;;4958451;28;20036;-84
2024/01/30 05:15:42;;;;;;;1999.90;999.90;;;-1.70;99.90;;;;;;4960235;28;20047;-84
2024/01/30 05:18:07;;;;;;;1999.90;999.90;;;-1.70;99.90;;;;;;4958537;28;20035;-84
2024/01/30 05:20:33;;;;;;;1999.90;999.90;;;-1.70;99.90;;;;;;4960060;28;20046;-84
2024/01/30 05:22:59;;;;;;;1999.90;999.90;;;-1.70;99.90;;;;;;4960061;28;20031;-84
2024/01/30 05:25:24;;;;;;;1999.90;999.90;;;-1.70;99.90;;;;;;4959380;28;20044;-84
2024/01/30 05:27:50;;;;;;;1999.90;999.90;;;-1.70;99.90;;;;;;4965053;28;20031;-84
2024/01/30 05:30:15;;;;;;;1999.90;999.90;;;-1.70;99.90;;;;;;4960931;28;20057;-84
2024/01/30 05:32:41;;;;;;;1999.90;999.90;;;-1.70;99.90;;;;;;4958290;28;20497;-83
2024/01/30 05:35:09;;;;;;;1999.90;999.90;;;-1.70;99.90;;;;;;4958334;28;20389;-83
2024/01/30 05:37:35;;;;;;;1999.90;999.90;;;-1.70;99.90;;;;;;4958298;28;20036;-84
2024/01/30 05:40:00;;;;;;;1999.90;999.90;;;-1.70;99.90;;;;;;4958912;28;20039;-84
2024/01/30 05:42:27;;;;;;;1999.90;999.90;;;-1.70;99.90;;;;;;4959747;28;20043;-84
2024/01/30 05:44:52;;;;;;;1999.90;999.90;;;-1.70;99.90;;;;;;4959180;28;20058;-84
2024/01/30 05:47:18;;;;;;;1999.90;999.90;;;-1.60;99.90;;;;;;4957781;28;20493;-84
2024/01/30 05:49:43;;;;;;;1999.90;999.90;;;-1.60;99.90;;;;;;4942831;28;20048;-84
2024/01/30 05:52:09;;;;;;;1999.90;999.90;;;-1.60;99.90;;;;;;4938839;28;20032;-84
2024/01/30 05:54:35;;;;;;;1999.90;999.90;;;-1.50;99.90;;;;;;4940195;28;20036;-85
2024/01/30 05:57:00;;;;;;;1999.90;999.90;;;-1.60;99.90;;;;;;4939156;28;20069;-84
2024/01/30 05:59:26;;;;;;;1999.90;999.90;;;-1.40;99.90;;;;;;4938573;29;20076;-84
2024/01/30 06:01:51;;;;;;;1999.90;999.90;;;-1.60;99.90;;;;;;4938567;28;20043;-86
2024/01/30 06:04:17;;;;;;;1999.90;999.90;;;-1.60;99.90;;;;;;4940784;28;20040;-84
2024/01/30 06:06:42;;;;;;;1999.90;999.90;;;-1.60;99.90;;;;;;4940730;29;20513;-84
2024/01/30 06:09:12;;;;;;;1999.90;999.90;;;-1.70;99.90;;;;;;4948096;28;20794;-84
2024/01/30 06:11:38;;;;;;;1999.90;999.90;;;-1.70;99.90;;;;;;4963771;28;20043;-83
2024/01/30 06:14:03;;;;;;;1999.90;999.90;;;-1.70;99.90;;;;;;4960438;28;20031;-84
2024/01/30 06:16:29;;;;;;;1999.90;999.90;;;-1.70;99.90;;;;;;4959688;28;20035;-84
2024/01/30 06:18:55;;;;;;;1999.90;999.90;;;-1.70;99.90;;;;;;4958289;28;20070;-85
2024/01/30 06:21:21;;;;;;;1999.90;999.90;;;-1.80;99.90;;;;;;4957425;28;20039;-84
2024/01/30 06:23:46;;;;;;;1999.90;999.90;;;-1.70;99.90;;;;;;4958991;28;20058;-84
2024/01/30 06:26:12;;;;;;;1999.90;999.90;;;-1.70;99.90;;;;;;4957604;28;20387;-85
2024/01/30 06:28:38;;;;;;;1999.90;999.90;;;-1.70;99.90;;;;;;4959092;28;20036;-84
2024/01/30 06:31:03;;;;;;;1999.90;999.90;;;-1.70;99.90;;;;;;4957211;28;20036;-85
2024/01/30 06:33:29;;;;;;;1999.90;999.90;;;-1.70;99.90;;;;;;4958187;28;20039;-84
2024/01/30 06:35:55;;;;;;;1999.90;999.90;;;-1.70;99.90;;;;;;4958788;28;20055;-85
2024/01/30 06:38:20;;;;;;;1999.90;999.90;;;-1.70;99.90;;;;;;4958863;28;20039;-84
2024/01/30 06:40:46;;;;;;;1999.90;999.90;;;-1.70;99.90;;;;;;4950468;28;20047;-84
2024/01/30 06:43:11;;;;;;;1999.90;999.90;;;-1.70;99.90;;;;;;4939408;28;20029;-85
2024/01/30 06:45:37;;;;;;;1999.90;999.90;;;-1.70;99.90;;;;;;4938684;28;20183;-85
2024/01/30 06:48:03;;;;;;;1999.90;999.90;;;-1.70;99.90;;;;;;4939701;28;20423;-84
2024/01/30 06:50:28;;;;;;;1999.90;999.90;;;-1.70;99.90;;;;;;4938845;29;20459;-83
2024/01/30 06:52:54;;;;;;;1999.90;999.90;;;-1.60;99.90;;;;;;4938291;28;20040;-84
2024/01/30 06:55:20;;;;;;;1999.90;999.90;;;-1.60;99.90;;;;;;4939795;28;20047;-86
2024/01/30 06:57:45;;;;;;;1999.90;999.90;;;-1.60;99.90;;;;;;4938611;28;20066;-83
2024/01/30 07:00:11;;;;;;;1999.90;999.90;;;-1.60;99.90;;;;;;4954934;28;20118;-85
2024/01/30 07:02:37;;;;;;;1999.90;999.90;;;-1.60;99.90;;;;;;4959298;28;20168;-83
2024/01/30 07:05:03;;;;;;;1999.90;999.90;;;-1.50;99.90;;;;;;4961790;28;20525;-83
2024/01/30 07:07:28;;;;;;;1999.90;999.90;;;-1.60;99.90;;;;;;4959888;28;20103;-84
2024/01/30 07:09:56;;;;;;;1999.90;999.90;;;-1.60;99.90;;;;;;4942303;28;20047;-84
2024/01/30 07:12:24;;;;;;;1999.90;999.90;;;-1.60;99.90;;;;;;4939242;28;20471;-84
2024/01/30 07:14:50;;;;;;;1999.90;999.90;;;-1.50;99.90;;;;;;4939526;29;20032;-83
2024/01/30 07:17:15;;;;;;;1999.90;999.90;;;-1.50;99.90;;;;;;4941621;28;20040;-84
2024/01/30 07:19:41;;;;;;;1999.90;999.90;;;-1.50;99.90;;;;;;4938088;29;20040;-84
2024/01/30 07:22:07;;;;;;;1999.90;999.90;;;-1.40;99.90;;;;;;4952423;28;20046;-83
2024/01/30 07:24:33;;;;;;;1999.90;999.90;;;-1.40;99.90;;;;;;4958235;28;20635;-85
2024/01/30 07:26:59;;;;;;;1999.90;999.90;;;-1.40;99.90;;;;;;4958171;28;20043;-84
2024/01/30 07:29:24;;;;;;;1999.90;999.90;;;-1.30;99.90;;;;;;4959278;28;20102;-85
2024/01/30 07:31:50;;;;;;;1999.90;999.90;;;-1.20;99.90;;;;;;4962521;28;20044;-84
2024/01/30 07:34:15;;;;;;;1999.90;999.90;;;-1.10;99.90;;;;;;4966460;28;20060;-84
2024/01/30 07:36:41;;;;;;;1999.90;999.90;;;-1.10;99.90;;;;;;4958888;28;20414;-84
2024/01/30 07:39:06;;;;;;;1999.90;999.90;;;-1.10;99.90;;;;;;4956543;28;20082;-83
2024/01/30 07:41:32;;;;;;;1999.90;999.90;;;-1.00;99.90;;;;;;4957850;28;20052;-84
2024/01/30 07:43:58;;;;;;;1999.90;999.90;;;-1.00;99.90;;;;;;4956089;28;20039;-85
2024/01/30 07:46:23;;;;;;;1999.90;999.90;;;-1.00;99.90;;;;;;4955826;28;20065;-85
2024/01/30 07:48:49;;;;;;;1999.90;999.90;;;-0.90;99.90;;;;;;4957139;28;20103;-84
2024/01/30 07:51:14;;;;;;;1999.90;999.90;;;-0.90;99.90;;;;;;4957301;28;20042;-84
2024/01/30 07:53:41;;;;;;;1999.90;999.90;;;-0.80;99.90;;;;;;4955806;28;20027;-85
2024/01/30 07:56:07;;;;;;;1999.90;999.90;;;-0.80;99.90;;;;;;4955913;28;20036;-86
2024/01/30 07:58:32;;;;;;;1999.90;999.90;;;-0.70;99.90;;;;;;4956710;28;20028;-85
2024/01/30 08:00:58;;;;;;;1999.90;999.90;;;-0.60;99.90;;;;;;4955661;28;20364;-85
2024/01/30 08:03:24;;;;;;;1999.90;999.90;;;-0.50;99.90;;;;;;4955635;28;20114;-85
2024/01/30 08:05:50;;;;;;;1999.90;999.90;;;-0.50;99.90;;;;;;4955048;28;20043;-85
2024/01/30 08:08:15;;;;;;;1999.90;999.90;;;-0.40;99.90;;;;;;4957528;28;20032;-85
2024/01/30 08:10:41;;;;;;;1999.90;999.90;;;-0.40;99.90;;;;;;4959682;28;20035;-85
2024/01/30 08:13:08;;;;;;;1999.90;999.90;;;-0.30;99.90;;;;;;4959934;28;20031;-84
2024/01/30 08:15:34;;;;;;;1999.90;999.90;;;-0.20;99.90;;;;;;4957040;28;20036;-84
2024/01/30 08:17:59;;;;;;;1999.90;999.90;;;-0.20;99.90;;;;;;4942410;28;20032;-84
2024/01/30 08:20:25;;;;;;;1999.90;999.90;;;-0.10;99.90;;;;;;4936221;29;20064;-85
2024/01/30 08:22:51;;;;;;;1999.90;999.90;;;0.00;99.90;;;;;;4950500;28;20501;-84
2024/01/30 08:25:17;;;;;;;1999.90;999.90;;;0.00;99.90;;;;;;4957309;28;20051;-85
2024/01/30 08:27:43;;;;;;;1999.90;999.90;;;0.10;99.90;;;;;;4960096;28;20051;-85
2024/01/30 08:30:09;;;;;;;1999.90;999.90;;;0.20;99.90;;;;;;4952461;28;20059;-84
2024/01/30 08:32:34;;;;;;;1999.90;999.90;;;0.20;99.90;;;;;;4939088;28;20029;-84
2024/01/30 08:35:03;;;;;;;1999.90;999.90;;;0.20;99.90;;;;;;4939444;28;20068;-85
2024/01/30 08:37:29;;;;;;;1999.90;999.90;;;0.30;99.90;;;;;;4943176;28;20035;-85
2024/01/30 08:39:55;;;;;;;1999.90;999.90;;;0.30;99.90;;;;;;4941375;28;20040;-85
2024/01/30 08:42:22;;;;;;;1999.90;999.90;;;0.30;99.90;;;;;;4939207;28;20083;-85
2024/01/30 08:44:49;;;;;;;1999.90;999.90;;;0.30;99.90;;;;;;4939067;28;20187;-85
2024/01/30 08:47:16;;;;;;;1999.90;999.90;;;0.30;99.90;;;;;;4939155;28;20052;-84
2024/01/30 08:49:43;;;;;;;1999.90;999.90;;;0.40;99.90;;;;;;4939834;28;20036;-84
2024/01/30 08:52:12;;;;;;;1999.90;999.90;;;0.40;99.90;;;;;;4938799;29;20040;-85
2024/01/30 08:54:37;;;;;;;1999.90;999.90;;;0.50;99.90;;;;;;4939518;29;20511;-85
2024/01/30 08:57:04;;;;;;;1999.90;999.90;;;0.50;99.90;;;;;;4943738;28;20051;-84
2024/01/30 08:59:29;;;;;;;1999.90;999.90;;;0.60;99.90;;;;;;4959353;28;20122;-84
2024/01/30 09:01:57;;;;;;;1999.90;999.90;;;0.60;99.90;;;;;;4959396;28;20126;-85
2024/01/30 09:04:23;;;;;;;1999.90;999.90;;;0.60;99.90;;;;;;4957975;28;20050;-85
2024/01/30 09:06:49;;;;;;;1999.90;999.90;;;0.70;99.90;;;;;;4958082;28;20040;-85
2024/01/30 09:09:14;;;;;;;1999.90;999.90;;;0.80;99.90;;;;;;4959171;28;20040;-85
2024/01/30 09:11:40;;;;;;;1999.90;999.90;;;0.80;99.90;;;;;;4957661;28;20047;-84
2024/01/30 09:14:06;;;;;;;1999.90;999.90;;;0.80;99.90;;;;;;4957812;28;20035;-85
2024/01/30 09:16:32;;;;;;;1999.90;999.90;;;0.90;99.90;;;;;;4957792;28;20047;-84
2024/01/30 09:18:57;;;;;;;1999.90;999.90;;;0.90;99.90;;;;;;4941156;28;20099;-85
2024/01/30 09:21:23;;;;;;;1999.90;999.90;;;0.90;99.90;;;;;;4939948;28;20386;-84
2024/01/30 09:23:48;;;;;;;1999.90;999.90;;;1.00;99.90;;;;;;4938510;29;20040;-84
2024/01/30 09:26:14;;;;;;;1999.90;999.90;;;1.10;99.90;;;;;;4950432;28;20051;-84
2024/01/30 09:28:42;;;;;;;1999.90;999.90;;;1.10;99.90;;;;;;4958234;28;20044;-85
2024/01/30 09:31:12;;;;;;;1999.90;999.90;;;1.20;99.90;;;;;;4957646;28;20043;-84
2024/01/30 09:33:38;;;;;;;1999.90;999.90;;;1.20;99.90;;;;;;4957731;28;20047;-85
2024/01/30 09:36:05;;;;;;;1999.90;999.90;;;1.30;99.90;;;;;;4956989;28;20036;-84
2024/01/30 09:38:31;;;;;;;1999.90;999.90;;;1.40;99.90;;;;;;4958589;28;20508;-85
2024/01/30 09:41:01;;;;;;;1999.90;999.90;;;1.50;99.90;;;;;;4955918;28;20044;-85
2024/01/30 09:43:32;;;;;;;1999.90;999.90;;;1.50;99.90;;;;;;4938491;28;20123;-84
2024/01/30 09:45:59;;;;;;;1999.90;999.90;;;1.70;99.90;;;;;;4938641;29;20036;-84
2024/01/30 09:48:26;;;;;;;1999.90;999.90;;;1.80;99.90;;;;;;4941316;28;20043;-84
2024/01/30 09:50:53;;;;;;;1999.90;999.90;;;2.00;99.90;;;;;;4958431;28;20043;-84
2024/01/30 09:53:19;;;;;;;1999.90;999.90;;;2.20;99.90;;;;;;4945668;28;20091;-84
2024/01/30 09:55:45;;;;;;;1999.90;999.90;;;2.40;99.90;;;;;;4939909;28;20043;-84
2024/01/30 09:58:12;;;;;;;1999.90;999.90;;;2.50;99.90;;;;;;4937804;28;20111;-84
2024/01/30 10:00:38;;;;;;;1999.90;999.90;;;2.70;99.90;;;;;;4938200;28;20502;-84
2024/01/30 10:03:04;;;;;;;1999.90;999.90;;;2.80;99.90;;;;;;4943184;28;20052;-84
2024/01/30 10:05:33;;;;;;;1999.90;999.90;;;3.00;99.90;;;;;;4938312;28;20048;-84
2024/01/30 10:07:59;;;;;;;1999.90;999.90;;;3.00;99.90;;;;;;4940807;28;20036;-84
2024/01/30 10:10:25;;;;;;;1999.90;999.90;;;3.10;99.90;;;;;;4959197;28;20442;-84
2024/01/30 10:12:50;;;;;;;1999.90;999.90;;;3.10;99.90;;;;;;4947581;28;20058;-84
2024/01/30 10:15:18;;;;;;;1999.90;999.90;;;3.30;99.90;;;;;;4956343;28;20074;-84
2024/01/30 10:17:44;;;;;;;1999.90;999.90;;;3.40;99.90;;;;;;4947534;28;20064;-84
2024/01/30 10:20:10;;;;;;;1999.90;999.90;;;3.60;99.90;;;;;;4942014;28;20071;-84
2024/01/30 10:22:36;;;;;;;1999.90;999.90;;;3.60;99.90;;;;;;4956993;28;20035;-84
2024/01/30 10:25:02;;;;;;;1999.90;999.90;;;3.70;99.90;;;;;;4958137;28;20079;-84
2024/01/30 10:27:29;;;;;;;1999.90;999.90;;;3.90;99.90;;;;;;4957007;28;20402;-84
2024/01/30 10:29:55;;;;;;;1999.90;999.90;;;4.00;99.90;;;;;;4958773;28;20475;-84
2024/01/30 10:32:21;;;;;;;1999.90;999.90;;;4.10;99.90;;;;;;4957041;28;20090;-83
2024/01/30 10:34:46;;;;;;;1999.90;999.90;;;4.10;99.90;;;;;;4958567;28;20494;-84
2024/01/30 10:37:15;;;;;;;1999.90;999.90;;;4.20;99.90;;;;;;4958145;28;20367;-84
2024/01/30 10:39:41;;;;;;;1999.90;999.90;;;4.20;99.90;;;;;;4957432;28;20142;-84
2024/01/30 10:42:10;;;;;;;1999.90;999.90;;;4.30;99.90;;;;;;4956545;28;20035;-84
2024/01/30 10:45:08;;;;;;;1999.90;999.90;;;4.30;99.90;;;;;;4956431;28;20039;-84
2024/01/30 10:47:38;;;;;;;1999.90;999.90;;;4.40;99.90;;;;;;4937247;29;20036;-84
2024/01/30 10:50:05;;;;;;;1999.90;999.90;;;4.50;99.90;;;;;;4951183;28;20085;-84
2024/01/30 10:52:32;;;;;;;1999.90;999.90;;;4.60;99.90;;;;;;4956790;28;20522;-84
2024/01/30 10:54:59;;;;;;;1999.90;999.90;;;4.60;99.90;;;;;;4958606;28;20110;-83
2024/01/30 10:57:25;;;;;;;1999.90;999.90;;;4.70;99.90;;;;;;4938429;29;20054;-84
2024/01/30 11:00:05;;;;;;;1999.90;999.90;;;4.80;99.90;;;;;;4958067;28;20040;-84
2024/01/30 11:02:31;;;;;;;1999.90;999.90;;;4.90;99.90;;;;;;4956574;28;20529;-83
2024/01/30 11:04:58;;;;;;;1999.90;999.90;;;5.00;99.90;;;;;;4953552;28;20095;-84
2024/01/30 11:07:28;;;;;;;1999.90;999.90;;;5.10;99.90;;;;;;4937963;28;20128;-87
2024/01/30 11:10:03;;;;;;;1999.90;999.90;;;5.20;99.90;;;;;;4937929;29;20036;-84
2024/01/30 11:12:47;;;;;;;;;;;;;;;;;;;;;
2024/01/30 11:15:15;;;;;;;1999.90;999.90;;;5.30;99.90;;;;;;4937569;29;40591;-85
2024/01/30 11:17:53;;;;;;;1999.90;999.90;;;5.50;99.90;;;;;;4938838;28;20044;-84
2024/01/30 11:20:22;;;;;;;1999.90;999.90;;;5.40;99.90;;;;;;4937187;29;20070;-83
2024/01/30 11:22:51;;;;;;;1999.90;999.90;;;5.40;99.90;;;;;;4936070;28;20132;-85
2024/01/30 11:25:20;;;;;;;1999.90;999.90;;;5.40;99.90;;;;;;4936403;29;20120;-85
2024/01/30 11:27:47;;;;;;;1999.90;999.90;;;5.40;99.90;;;;;;4936677;28;20039;-85
2024/01/30 11:30:26;;;;;;;1999.90;999.90;;;5.40;99.90;;;;;;4937568;28;20491;-86
2024/01/30 11:32:59;;;;;;;1999.90;999.90;;;5.40;99.90;;;;;;4949272;28;20044;-85
2024/01/30 11:35:25;;;;;;;1999.90;999.90;;;5.40;99.90;;;;;;4955814;28;20067;-85
2024/01/30 11:37:51;;;;;;;1999.90;999.90;;;5.40;99.90;;;;;;4957365;28;20040;-85
2024/01/30 11:40:17;;;;;;;1999.90;999.90;;;5.60;99.90;;;;;;4957033;28;20035;-85
2024/01/30 11:42:43;;;;;;;1999.90;999.90;;;5.60;99.90;;;;;;4957082;28;20494;-86
2024/01/30 11:45:09;;;;;;;1999.90;999.90;;;5.70;99.90;;;;;;4955738;28;20035;-86
2024/01/30 11:47:37;;;;;;;1999.90;999.90;;;5.70;99.90;;;;;;4955937;28;20498;-85
2024/01/30 11:50:06;;;;;;;1999.90;999.90;;;5.90;99.90;;;;;;4955513;28;20070;-86
2024/01/30 11:52:33;;;;;;;1999.90;999.90;;;5.80;99.90;;;;;;4955690;28;20510;-86
2024/01/30 11:54:59;;;;;;;1999.90;999.90;;;5.70;99.90;;;;;;4955693;28;20039;-87
2024/01/30 11:57:27;;;;;;;1999.90;999.90;;;5.70;99.90;;;;;;4955663;28;20060;-86
2024/01/30 11:59:52;;;;;;;1999.90;999.90;;;5.70;99.90;;;;;;4949967;28;20075;-85